Terminal Aerodrome Forecast
Issued by NWS

Home | Current Version | Previous Version | Text Only | Print | Product List | Glossary On
Versions: 1 2 3 4 5 6 7 8 9 10 11 12 13 14 15 16 17 18 19 20 21 22 23 24 25
000
FTUS41 KCAR 072333
TAFPQI
TAF
KPQI 072333Z 0800/0824 18006KT P6SM -SN SCT015 BKN035
     FM080100 19006KT P6SM BKN020
     FM080600 22005KT 2SM BR BKN025
     FM081300 23006KT P6SM BKN025
     FM081800 22006KT P6SM BKN015
     FM082200 21005KT P6SM BKN050=

USA.gov is the U.S. government's official web portal to all federal, state and local government web resources and services.